SILO ALERT LOG


Silo ID Alert Type Alert Message Silo Type Points Depth (mm) Strength Temperature (°C) Humidity (%) Height (mm) Volume (㎥) Weight (t) Flag Time
DJSSD01 Humidity 습도센서 측정값이 80% 초과 803 2561 4727 5.2 83.8 5518 768.055 485.564 0 2024-01-14 01:39:33.000
DJSSD04 Temperature 온도센서 상태 이상 0 8200 0 -999 -999 -120 -16.702 0 31 2024-01-14 01:39:33.000
DJDJD04 Humidity 습도센서 측정값이 80% 초과 274 4226 4444 3.3 81.9 3453 418.431 264.532 11 2024-01-14 01:39:32.000
DJSSD11 Temperature 온도센서 측정값이 0도 미만 호퍼 444 7391 154 -4 67.4 3838 28.858 15.727 0 2024-01-14 01:39:32.000
DJSAD17 Humidity 습도센서 측정값이 80% 초과 449 3135 4841 4.2 81.8 4444 442.596 279.809 0 2024-01-14 01:39:31.000
DJSAD16 Humidity 습도센서 측정값이 80% 초과 96 6467 3427 4.9 80.1 1112 110.816 70.058 11 2024-01-14 01:39:31.000
DJSAD18 Humidity 습도센서 측정값이 80% 초과 121 1406 5802 5.1 80.8 6173 614.701 388.614 11 2024-01-14 01:39:31.000
DJHNR14 Temperature 온도센서 측정값이 0도 미만 호퍼 47 2966 4491 -2.9 73.9 7413 105.97 66.994 11 2024-01-14 01:39:31.000
DJSAD08 Humidity 습도센서 측정값이 80% 초과 565 2323 4880 7.7 83.8 5256 748.004 472.888 0 2024-01-14 01:39:31.000
DJSSD09 Temperature 온도센서 측정값이 0도 미만 121 2899 3532 -45.4 0 4780 665.378 420.652 11 2024-01-14 01:39:31.000
DJHNR13 Temperature 온도센서 측정값이 0도 미만 호퍼 12 2811 3053 -2.3 70.8 7568 109.298 69.098 0 2024-01-14 01:39:30.000
DJSSD12 Temperature 온도센서 상태 이상 호퍼 0 11350 0 -999 -999 -120 0 0 31 2024-01-14 01:39:25.000
DJHNR03 Temperature 온도센서 상태 이상 호퍼 0 15500 0 -999 -999 -119 0 0 31 2024-01-14 01:39:24.000
DJHNR12 Temperature 온도센서 측정값이 0도 미만 호퍼 0 10500 0 -1.5 77.2 -120 0 0 31 2024-01-14 01:39:23.000
DJSAD03 Humidity 습도센서 측정값이 80% 초과 441 1838 6217 3.2 84.5 6941 287.335 181.653 0 2024-01-14 00:39:40.000
DJSAD01 Humidity 습도센서 측정값이 80% 초과 464 1447 7387 1.3 85.3 7332 303.559 191.91 0 2024-01-14 00:39:40.000
DJSAD02 Humidity 습도센서 측정값이 80% 초과 385 1133 4277 2 86 7646 316.526 200.108 11 2024-01-14 00:39:39.000
DJDJD03 Humidity 습도센서 측정값이 80% 초과 55 4524 5009 2.6 82.3 3155 382.331 241.71 0 2024-01-14 00:39:39.000
DJSAD11 Humidity 습도센서 측정값이 80% 초과 332 1652 3311 1.9 80.2 5927 843.413 533.206 11 2024-01-14 00:39:35.000
DJSSD05 Temperature 온도센서 측정값이 0도 미만 844 2542 5043 -45.4 43.7 5537 770.655 487.208 0 2024-01-14 00:39:33.000

[첫 페이지] [9955] [9956] [9957] [9958] 9959 [9960] [9961] [9962] [9963] [마지막 페이지]